Time;durP1;ratioP1;P1;durP2;ratioP2;P2;SDS_P1;SDS_P2;PMS_P1;PMS_P2;Temp;Humidity;BMP_temperature;BMP_pressure;BME280_temperature;BME280_humidity;BME280_pressure;Samples;Min_cycle;Max_cycle;Signal;HPM_P1;HPM_P2
2022/06/05 00:01:20;;;;;;;518.75;454.05;;;10.90;83.00;;;;;;4999446;28;20289;-66
2022/06/05 00:03:49;;;;;;;499.20;444.65;;;11.00;83.30;;;;;;5021858;28;20094;-67
2022/06/05 00:06:26;;;;;;;523.08;458.58;;;11.00;83.30;;;;;;5026441;28;20041;-66
2022/06/05 00:09:21;;;;;;;527.15;472.42;;;11.00;83.50;;;;;;5022587;28;20067;-66
2022/06/05 00:12:02;;;;;;;458.08;407.10;;;11.00;83.50;;;;;;5020662;28;20124;-67
2022/06/05 00:14:28;;;;;;;525.00;439.60;;;11.00;83.50;;;;;;5002332;28;20033;-66
2022/06/05 00:16:54;;;;;;;639.00;484.77;;;11.10;83.60;;;;;;5024446;28;20067;-66
2022/06/05 00:19:19;;;;;;;441.40;366.03;;;11.10;83.40;;;;;;4990498;28;20070;-66
2022/06/05 00:21:45;;;;;;;404.93;329.20;;;11.10;83.60;;;;;;5022986;28;20247;-66
2022/06/05 00:24:11;;;;;;;564.60;459.73;;;11.10;83.70;;;;;;5008762;28;20457;-66
2022/06/05 00:26:36;;;;;;;493.93;419.47;;;11.20;83.60;;;;;;5023673;28;20452;-66
2022/06/05 00:29:07;;;;;;;462.67;384.60;;;11.20;83.60;;;;;;5023591;28;20146;-66
2022/06/05 00:32:05;;;;;;;527.35;380.70;;;11.30;83.40;;;;;;5023691;28;20048;-66
2022/06/05 00:34:31;;;;;;;743.70;561.83;;;11.30;83.60;;;;;;5023576;28;20147;-66
2022/06/05 00:37:13;;;;;;;449.60;390.40;;;11.30;83.70;;;;;;5023725;28;20084;-67
2022/06/05 00:39:55;;;;;;;540.15;411.10;;;11.40;83.50;;;;;;5016151;28;20054;-67
2022/06/05 00:42:24;;;;;;;563.28;463.25;;;11.30;83.50;;;;;;5023702;28;20092;-66
2022/06/05 00:44:56;;;;;;;505.02;440.25;;;11.40;83.60;;;;;;5019660;28;20113;-67
2022/06/05 00:47:25;;;;;;;559.67;498.40;;;11.30;83.60;;;;;;5023567;28;20114;-67
2022/06/05 00:49:55;;;;;;;487.98;434.73;;;11.30;83.80;;;;;;5024761;28;20076;-67
2022/06/05 00:52:24;;;;;;;509.45;435.80;;;11.30;83.80;;;;;;5007025;28;20124;-67
2022/06/05 00:54:49;;;;;;;471.67;415.67;;;11.30;83.50;;;;;;5021675;28;20029;-67
2022/06/05 00:57:16;;;;;;;534.73;460.77;;;11.30;83.60;;;;;;5007437;28;20480;-67
2022/06/05 00:59:45;;;;;;;681.92;538.30;;;11.30;83.70;;;;;;5024352;28;20045;-67
2022/06/05 01:02:12;;;;;;;425.77;355.27;;;11.30;83.90;;;;;;5024429;28;20040;-67
2022/06/05 01:04:42;;;;;;;518.65;401.98;;;11.30;83.70;;;;;;4990418;28;20029;-67
2022/06/05 01:07:09;;;;;;;484.33;415.33;;;11.30;84.00;;;;;;5025025;28;20050;-67
2022/06/05 01:09:36;;;;;;;561.35;440.63;;;11.30;84.00;;;;;;5039453;28;20083;-67
2022/06/05 01:12:31;;;;;;;530.65;441.52;;;11.30;84.10;;;;;;5023823;28;20076;-67
2022/06/05 01:15:18;;;;;;;539.40;474.30;;;11.30;84.20;;;;;;5037995;28;20121;-67
2022/06/05 01:18:01;;;;;;;541.28;476.75;;;11.40;84.30;;;;;;5023134;28;20073;-67
2022/06/05 01:20:39;;;;;;;473.25;380.67;;;11.30;84.20;;;;;;5023182;28;20038;-67
2022/06/05 01:23:31;;;;;;;446.38;396.33;;;11.40;84.20;;;;;;5023404;28;20292;-67
2022/06/05 01:26:08;;;;;;;552.95;469.50;;;11.40;84.30;;;;;;5020547;28;20048;-67
2022/06/05 01:28:41;;;;;;;600.67;476.67;;;11.30;84.70;;;;;;5015015;28;20147;-67
2022/06/05 01:31:41;;;;;;;460.00;398.55;;;11.30;84.60;;;;;;5024817;28;20049;-67
2022/06/05 01:34:31;;;;;;;489.83;438.33;;;11.30;84.50;;;;;;5022424;28;20045;-67
2022/06/05 01:37:11;;;;;;;465.13;414.38;;;11.30;84.50;;;;;;5027718;28;20095;-67
2022/06/05 01:40:03;;;;;;;440.75;385.52;;;11.30;84.60;;;;;;5042866;28;20127;-67
2022/06/05 01:42:36;;;;;;;586.05;493.95;;;11.30;84.70;;;;;;5000345;28;20051;-67
2022/06/05 01:45:39;;;;;;;405.73;361.17;;;11.40;84.80;;;;;;5008422;28;20053;-67
2022/06/05 01:48:09;;;;;;;517.63;443.48;;;11.50;84.40;;;;;;5022160;28;20463;-67
2022/06/05 01:50:44;;;;;;;657.05;495.42;;;11.40;84.60;;;;;;5024479;28;20045;-67
2022/06/05 01:53:34;;;;;;;569.58;487.67;;;11.40;84.80;;;;;;5026978;28;20128;-67
2022/06/05 01:56:05;;;;;;;507.70;457.50;;;11.50;85.00;;;;;;5025163;28;20116;-67
2022/06/05 01:58:39;;;;;;;690.55;535.80;;;11.40;84.60;;;;;;5026032;28;20138;-67
2022/06/05 02:01:10;;;;;;;469.75;379.60;;;11.40;85.00;;;;;;5041227;28;20046;-67
2022/06/05 02:04:01;;;;;;;559.13;464.98;;;11.40;84.80;;;;;;5010946;28;20046;-67
2022/06/05 02:06:33;;;;;;;602.08;524.15;;;11.40;84.90;;;;;;5025473;28;20076;-67
2022/06/05 02:09:05;;;;;;;570.95;508.85;;;11.40;85.10;;;;;;5027599;28;20040;-67
2022/06/05 02:11:33;;;;;;;519.58;402.63;;;11.40;85.00;;;;;;5027079;28;20450;-67
2022/06/05 02:14:08;;;;;;;521.60;453.45;;;11.40;85.00;;;;;;5003251;28;20050;-67
2022/06/05 02:16:36;;;;;;;583.05;521.00;;;11.40;85.30;;;;;;5020275;28;20375;-67
2022/06/05 02:19:09;;;;;;;519.60;430.23;;;11.40;85.30;;;;;;5026140;28;20709;-67
2022/06/05 02:21:37;;;;;;;530.35;444.10;;;11.50;85.20;;;;;;5021751;28;20482;-67
2022/06/05 02:24:04;;;;;;;512.53;423.98;;;11.50;85.10;;;;;;5009906;28;20556;-67
2022/06/05 02:26:29;;;;;;;554.42;446.42;;;11.50;85.20;;;;;;5026457;28;20076;-66
2022/06/05 02:28:56;;;;;;;725.50;520.90;;;11.50;85.30;;;;;;5009830;28;20068;-67
2022/06/05 02:31:53;;;;;;;504.42;433.10;;;11.50;85.30;;;;;;5010279;28;20041;-67
2022/06/05 02:34:31;;;;;;;596.22;507.20;;;11.50;85.20;;;;;;5023104;28;20041;-67
2022/06/05 02:37:17;;;;;;;566.13;456.85;;;11.50;85.30;;;;;;5022638;28;20037;-67
2022/06/05 02:39:48;;;;;;;;;;;11.50;85.30;;;;;;5027337;28;20049;-67
2022/06/05 02:43:04;;;;;;;613.38;548.40;;;11.50;85.30;;;;;;5021785;28;19924;-67
2022/06/05 02:45:51;;;;;;;634.22;571.25;;;11.50;85.00;;;;;;5006206;28;20042;-67
2022/06/05 02:48:31;;;;;;;609.88;516.03;;;11.50;85.30;;;;;;4993104;28;20189;-67
2022/06/05 02:51:23;;;;;;;537.28;482.10;;;11.50;85.10;;;;;;4997703;28;20179;-67
2022/06/05 02:53:52;;;;;;;582.95;522.38;;;11.50;85.20;;;;;;5025488;28;20052;-67
2022/06/05 02:56:19;;;;;;;579.80;487.45;;;11.50;85.20;;;;;;5016032;28;20579;-67
2022/06/05 02:58:47;;;;;;;716.92;547.75;;;11.40;85.40;;;;;;5022082;28;20037;-67
2022/06/05 03:03:56;;;;;;;764.17;602.45;;;11.50;85.40;;;;;;5015332;28;20335;-67
2022/06/05 03:06:22;;;;;;;478.50;427.50;;;11.50;85.50;;;;;;5025576;28;20128;-67
2022/06/05 03:08:48;;;;;;;651.60;519.07;;;11.50;85.40;;;;;;5025615;28;20750;-67
2022/06/05 03:11:14;;;;;;;458.98;403.95;;;11.50;85.40;;;;;;5026035;28;20088;-67
2022/06/05 03:13:40;;;;;;;508.03;433.10;;;11.50;85.40;;;;;;5009018;28;20042;-67
2022/06/05 03:16:07;;;;;;;580.83;497.13;;;11.50;85.60;;;;;;4991741;28;20469;-67
2022/06/05 03:18:34;;;;;;;518.72;443.08;;;11.50;85.70;;;;;;5025306;28;20117;-67
2022/06/05 03:20:59;;;;;;;544.53;431.75;;;11.50;85.80;;;;;;5017814;28;20048;-67
2022/06/05 03:23:26;;;;;;;544.07;480.13;;;11.50;85.90;;;;;;5025202;28;20041;-67
2022/06/05 03:25:52;;;;;;;548.33;479.42;;;11.50;85.80;;;;;;5009001;28;20048;-67
2022/06/05 03:28:18;;;;;;;626.65;512.80;;;11.60;85.90;;;;;;5023775;28;20125;-67
2022/06/05 03:30:44;;;;;;;752.63;536.17;;;11.70;85.70;;;;;;5009645;28;20131;-67
2022/06/05 03:33:11;;;;;;;530.17;448.08;;;11.70;85.80;;;;;;5025021;28;20040;-67
2022/06/05 03:35:43;;;;;;;549.63;486.35;;;11.70;85.80;;;;;;5024775;28;20049;-67
2022/06/05 03:38:10;;;;;;;565.78;503.48;;;11.70;85.80;;;;;;5017445;28;20054;-67
2022/06/05 03:40:39;;;;;;;650.65;501.55;;;11.80;85.90;;;;;;5019980;28;20560;-67
2022/06/05 03:43:05;;;;;;;558.65;435.80;;;11.80;86.00;;;;;;5023686;28;20052;-67
2022/06/05 03:45:31;;;;;;;700.80;508.67;;;11.80;85.80;;;;;;5006185;28;20338;-67
2022/06/05 03:47:57;;;;;;;595.37;446.67;;;11.80;86.00;;;;;;4991678;28;20045;-67
2022/06/05 03:50:24;;;;;;;551.03;434.42;;;11.90;85.80;;;;;;5024903;28;20037;-67
2022/06/05 03:52:49;;;;;;;641.92;463.00;;;11.90;85.80;;;;;;5024394;28;20409;-67
2022/06/05 03:55:19;;;;;;;567.73;448.53;;;11.90;85.90;;;;;;5008398;28;20140;-67
2022/06/05 03:57:45;;;;;;;632.05;492.45;;;11.90;85.90;;;;;;5022621;28;20044;-67
2022/06/05 04:00:14;;;;;;;628.33;531.22;;;11.90;86.10;;;;;;5023954;28;20140;-67
2022/06/05 04:02:40;;;;;;;608.77;460.00;;;11.90;85.90;;;;;;5007945;28;20490;-67
2022/06/05 04:05:07;;;;;;;561.55;473.75;;;12.00;85.90;;;;;;5008948;28;20291;-67
2022/06/05 04:07:33;;;;;;;622.45;524.05;;;12.00;86.10;;;;;;5022347;28;20088;-67
2022/06/05 04:09:59;;;;;;;590.90;466.27;;;12.10;85.90;;;;;;5007460;28;20080;-67
2022/06/05 04:12:25;;;;;;;493.67;423.83;;;12.20;85.50;;;;;;5024072;28;20103;-67
2022/06/05 04:14:50;;;;;;;566.60;489.53;;;12.20;85.60;;;;;;5024518;28;20059;-67
2022/06/05 04:17:16;;;;;;;607.77;520.70;;;12.30;85.50;;;;;;5001632;28;20402;-67
2022/06/05 04:19:42;;;;;;;572.97;479.53;;;12.30;85.60;;;;;;5019600;28;20045;-67
2022/06/05 04:22:08;;;;;;;625.00;505.77;;;12.40;85.50;;;;;;5024255;28;20363;-67
2022/06/05 04:24:34;;;;;;;638.53;516.60;;;12.50;85.40;;;;;;5024279;28;20287;-67
2022/06/05 04:26:59;;;;;;;563.87;463.27;;;12.50;85.30;;;;;;5001459;28;20277;-67
2022/06/05 04:29:25;;;;;;;612.00;484.90;;;12.60;85.20;;;;;;5011255;28;20570;-67
2022/06/05 04:31:51;;;;;;;643.10;498.57;;;12.60;85.20;;;;;;5011940;28;20132;-67
2022/06/05 04:34:19;;;;;;;562.50;447.43;;;12.60;85.10;;;;;;5008564;28;20033;-67
2022/06/05 04:36:46;;;;;;;599.60;491.13;;;12.70;84.90;;;;;;5023954;28;20334;-67
2022/06/05 04:39:12;;;;;;;672.17;553.90;;;12.70;84.70;;;;;;5022469;28;20426;-67
2022/06/05 04:41:39;;;;;;;647.53;477.57;;;12.80;84.50;;;;;;4996838;28;20300;-67
2022/06/05 04:44:07;;;;;;;616.10;489.63;;;12.80;84.40;;;;;;5008084;28;20303;-67
2022/06/05 04:46:34;;;;;;;649.73;521.50;;;12.90;84.30;;;;;;5008583;28;20330;-67
2022/06/05 04:49:00;;;;;;;670.27;556.17;;;12.90;84.30;;;;;;5024793;28;20283;-67
2022/06/05 04:51:26;;;;;;;721.60;484.73;;;12.90;84.10;;;;;;5020191;28;20292;-67
2022/06/05 04:53:54;;;;;;;624.67;485.53;;;13.00;83.80;;;;;;5008607;28;20294;-67
2022/06/05 04:56:23;;;;;;;627.70;499.37;;;13.00;83.80;;;;;;5023977;28;20324;-67
2022/06/05 04:58:49;;;;;;;625.20;489.00;;;13.10;83.50;;;;;;5023861;28;20323;-67
2022/06/05 05:01:25;;;;;;;680.97;524.83;;;13.20;83.40;;;;;;4989848;28;20316;-67
2022/06/05 05:03:53;;;;;;;694.07;523.30;;;13.20;83.20;;;;;;5021778;28;20291;-67
2022/06/05 05:06:20;;;;;;;656.20;509.43;;;13.30;83.00;;;;;;5009854;28;21035;-67
2022/06/05 05:08:45;;;;;;;607.03;479.23;;;13.50;82.90;;;;;;5027938;28;20287;-67
2022/06/05 05:11:11;;;;;;;713.17;519.27;;;13.70;82.80;;;;;;5008626;28;20377;-67
2022/06/05 05:13:37;;;;;;;676.03;448.73;;;13.90;82.20;;;;;;5011859;28;20060;-67
2022/06/05 05:16:04;;;;;;;726.17;556.40;;;14.20;81.70;;;;;;5012222;28;20287;-67
2022/06/05 05:18:29;;;;;;;779.03;556.43;;;14.50;80.60;;;;;;5027843;28;20326;-67
2022/06/05 05:21:07;;;;;;;701.07;492.73;;;14.60;79.60;;;;;;5009618;28;20309;-68
2022/06/05 05:23:32;;;;;;;795.37;530.40;;;14.60;79.00;;;;;;5011366;28;20041;-68
2022/06/05 05:26:13;;;;;;;831.13;570.53;;;14.60;78.70;;;;;;5027922;28;20361;-67
2022/06/05 05:28:40;;;;;;;871.37;562.70;;;14.70;78.50;;;;;;5018342;28;20073;-68
2022/06/05 05:31:10;;;;;;;694.67;506.17;;;14.70;78.50;;;;;;5027363;28;20826;-67
2022/06/05 05:33:37;;;;;;;978.57;587.87;;;14.60;78.40;;;;;;5006245;28;20292;-67
2022/06/05 05:36:02;;;;;;;791.53;528.27;;;14.60;78.70;;;;;;5011073;28;20320;-67
2022/06/05 05:38:28;;;;;;;912.87;581.93;;;14.50;78.50;;;;;;5010983;28;20392;-67
2022/06/05 05:43:38;;;;;;;752.60;524.70;;;14.50;78.70;;;;;;5044389;28;20130;-67
2022/06/05 05:46:11;;;;;;;830.37;579.63;;;14.50;78.60;;;;;;5027424;28;20374;-67
2022/06/05 05:48:37;;;;;;;768.83;502.03;;;14.50;78.80;;;;;;5011485;28;20370;-67
2022/06/05 05:51:09;;;;;;;760.67;525.13;;;14.50;79.00;;;;;;5021189;28;20300;-67
2022/06/05 05:53:35;;;;;;;741.00;532.87;;;14.60;78.60;;;;;;5030587;28;20312;-67
2022/06/05 05:56:12;;;;;;;744.53;529.30;;;14.60;78.20;;;;;;5027535;28;20358;-67
2022/06/05 05:58:39;;;;;;;663.37;467.13;;;14.60;78.20;;;;;;5020823;28;20037;-67
2022/06/05 06:01:10;;;;;;;755.27;543.40;;;14.70;78.00;;;;;;4990424;28;20363;-67
2022/06/05 06:03:36;;;;;;;857.90;568.57;;;14.60;78.30;;;;;;5010524;28;20296;-67
2022/06/05 06:06:02;;;;;;;774.23;524.17;;;14.70;78.20;;;;;;5010584;28;20362;-67
2022/06/05 06:08:28;;;;;;;801.10;555.77;;;14.70;77.90;;;;;;5026068;28;20320;-67
2022/06/05 06:10:54;;;;;;;810.73;577.87;;;14.80;78.20;;;;;;5026421;28;20288;-67
2022/06/05 06:13:20;;;;;;;715.50;501.47;;;14.90;78.00;;;;;;5027189;28;20284;-67
2022/06/05 06:15:47;;;;;;;714.57;528.23;;;14.90;78.20;;;;;;5009403;28;20323;-67
2022/06/05 06:18:14;;;;;;;741.67;503.20;;;15.00;78.40;;;;;;5025799;28;20107;-67
2022/06/05 06:20:40;;;;;;;710.73;489.03;;;15.10;78.20;;;;;;5016793;28;20316;-67
2022/06/05 06:23:06;;;;;;;727.30;527.27;;;15.20;77.80;;;;;;5009390;28;20287;-68
2022/06/05 06:25:31;;;;;;;913.17;563.87;;;15.20;77.20;;;;;;5027269;28;20596;-68
2022/06/05 06:27:57;;;;;;;752.77;527.53;;;15.30;77.30;;;;;;5010638;28;20072;-68
2022/06/05 06:30:23;;;;;;;728.60;493.47;;;15.40;77.20;;;;;;5026857;28;20053;-68
2022/06/05 06:32:48;;;;;;;814.77;536.73;;;15.50;76.60;;;;;;5025387;28;20046;-68
2022/06/05 06:35:14;;;;;;;829.83;542.20;;;15.60;76.40;;;;;;5010464;28;20045;-68
2022/06/05 06:37:40;;;;;;;880.53;568.17;;;15.60;76.30;;;;;;5026661;28;20099;-68
2022/06/05 06:40:06;;;;;;;820.97;547.23;;;15.70;76.30;;;;;;5010316;28;20164;-68
2022/06/05 06:42:32;;;;;;;755.57;533.67;;;15.70;75.70;;;;;;5000587;28;20469;-68
2022/06/05 06:44:58;;;;;;;798.77;538.53;;;15.80;75.70;;;;;;5009831;28;20338;-68
2022/06/05 06:47:24;;;;;;;771.40;505.93;;;15.80;75.60;;;;;;5026767;28;20037;-68
2022/06/05 06:49:49;;;;;;;822.20;526.77;;;15.90;75.20;;;;;;5003560;28;20132;-68
2022/06/05 06:52:15;;;;;;;834.43;541.00;;;16.00;75.30;;;;;;5025628;28;20388;-68
2022/06/05 06:54:41;;;;;;;865.90;548.60;;;16.00;75.10;;;;;;5009712;28;20045;-68
2022/06/05 06:57:08;;;;;;;785.70;526.57;;;16.10;74.50;;;;;;5025880;28;20299;-68
2022/06/05 06:59:34;;;;;;;808.67;552.47;;;16.20;74.40;;;;;;5025390;28;20323;-68
2022/06/05 07:02:00;;;;;;;796.90;524.80;;;16.40;74.40;;;;;;5025158;28;20319;-68
2022/06/05 07:04:25;;;;;;;924.97;575.83;;;16.50;74.10;;;;;;5026022;28;20095;-68
2022/06/05 07:06:51;;;;;;;753.30;519.33;;;16.70;73.90;;;;;;5026618;28;20088;-68
2022/06/05 07:09:17;;;;;;;784.47;528.80;;;16.80;73.50;;;;;;5005526;28;20044;-68
2022/06/05 07:11:43;;;;;;;870.73;562.53;;;17.00;72.90;;;;;;5022241;28;20098;-68
2022/06/05 07:14:10;;;;;;;758.53;528.17;;;17.20;72.20;;;;;;5023341;28;20292;-68
2022/06/05 07:16:37;;;;;;;844.43;556.33;;;17.30;71.10;;;;;;5024925;28;20288;-68
2022/06/05 07:19:04;;;;;;;846.17;571.13;;;17.30;70.80;;;;;;5008611;28;20368;-68
2022/06/05 07:21:30;;;;;;;818.53;596.97;;;17.40;70.40;;;;;;5022655;28;20391;-68
2022/06/05 07:23:57;;;;;;;872.70;611.07;;;17.50;70.80;;;;;;4992315;28;20280;-68
2022/06/05 07:26:26;;;;;;;778.57;526.50;;;17.70;70.20;;;;;;5008221;28;20276;-68
2022/06/05 07:28:53;;;;;;;881.90;642.57;;;17.90;70.70;;;;;;5024611;28;20820;-68
2022/06/05 07:31:19;;;;;;;885.33;605.57;;;18.10;69.10;;;;;;5023867;28;20287;-68
2022/06/05 07:33:45;;;;;;;877.83;634.27;;;18.30;69.10;;;;;;5024174;28;20367;-68
2022/06/05 07:36:14;;;;;;;985.37;649.33;;;18.50;68.90;;;;;;5020323;28;20111;-68
2022/06/05 07:38:40;;;;;;;864.20;605.57;;;18.60;68.20;;;;;;5025016;28;20140;-68
2022/06/05 07:41:13;;;;;;;895.03;623.13;;;18.80;68.20;;;;;;5017905;28;20320;-68
2022/06/05 07:43:40;;;;;;;851.87;587.73;;;18.90;66.90;;;;;;5024370;28;20357;-68
2022/06/05 07:46:06;;;;;;;910.10;607.90;;;19.00;66.70;;;;;;5007748;28;20330;-68
2022/06/05 07:48:32;;;;;;;1006.50;667.33;;;19.10;67.20;;;;;;5024618;28;20319;-68
2022/06/05 07:56:32;;;;;;;913.77;621.23;;;19.30;66.40;;;;;;5024632;28;20300;-69
2022/06/05 07:58:58;;;;;;;1015.07;642.77;;;19.50;66.30;;;;;;5024267;28;20298;-69
2022/06/05 08:01:24;;;;;;;942.93;626.13;;;19.70;65.90;;;;;;5024198;28;20453;-69
2022/06/05 08:03:49;;;;;;;935.87;614.33;;;19.80;65.50;;;;;;5010717;28;20445;-69
2022/06/05 08:06:15;;;;;;;1049.23;657.83;;;19.90;65.40;;;;;;5025254;28;20099;-68
2022/06/05 08:08:40;;;;;;;1071.37;695.10;;;20.00;64.10;;;;;;5017479;28;20107;-69
2022/06/05 08:11:06;;;;;;;1096.70;685.17;;;20.00;63.90;;;;;;5020495;28;20033;-68
2022/06/05 08:13:32;;;;;;;1031.97;710.93;;;20.00;63.40;;;;;;5020248;28;20069;-69
2022/06/05 08:15:59;;;;;;;1010.63;708.70;;;20.00;63.40;;;;;;5007804;28;20069;-69
2022/06/05 08:18:24;;;;;;;1066.73;705.23;;;19.90;63.20;;;;;;5007891;28;20406;-69
2022/06/05 08:20:50;;;;;;;1081.37;692.73;;;19.90;63.30;;;;;;5005447;28;20034;-68
2022/06/05 08:23:16;;;;;;;1045.60;704.83;;;20.00;63.80;;;;;;4988290;28;20459;-69
2022/06/05 08:25:42;;;;;;;1001.43;642.10;;;20.00;63.70;;;;;;5007083;28;20041;-69
2022/06/05 08:28:08;;;;;;;1027.47;671.10;;;20.10;63.90;;;;;;5007751;28;20506;-68
2022/06/05 08:30:37;;;;;;;1069.67;705.10;;;20.10;63.10;;;;;;5006814;28;20053;-69
2022/06/05 08:33:03;;;;;;;1058.17;704.43;;;20.10;62.60;;;;;;5021596;28;20049;-69
2022/06/05 08:35:28;;;;;;;1091.60;680.27;;;20.20;62.50;;;;;;5007747;28;20437;-68
2022/06/05 08:43:30;;;;;;;1278.80;765.83;;;20.30;61.80;;;;;;5027712;28;20524;-68
2022/06/05 08:46:09;;;;;;;1177.17;733.90;;;20.30;61.80;;;;;;5028241;28;20045;-68
2022/06/05 08:48:38;;;;;;;1165.37;748.40;;;20.40;62.60;;;;;;5005600;28;20558;-69
2022/06/05 08:51:28;;;;;;;1090.17;751.57;;;20.50;62.20;;;;;;5037730;28;20049;-68
2022/06/05 08:53:57;;;;;;;1217.33;773.00;;;20.70;61.60;;;;;;5025953;28;20041;-69
2022/06/05 08:56:45;;;;;;;1111.83;733.20;;;20.80;61.20;;;;;;5026481;28;20049;-69
2022/06/05 08:59:14;;;;;;;1235.57;760.40;;;20.90;60.70;;;;;;5011119;28;20099;-69
2022/06/05 09:01:48;;;;;;;1156.43;735.90;;;21.00;61.30;;;;;;5026180;28;20490;-69
2022/06/05 09:04:26;;;;;;;1117.30;731.83;;;21.20;60.50;;;;;;5026072;28;20541;-69
2022/06/05 09:06:58;;;;;;;1150.97;726.10;;;21.20;60.80;;;;;;5025448;28;20053;-69
2022/06/05 09:09:37;;;;;;;1119.43;741.97;;;21.40;60.50;;;;;;5027463;28;20041;-69
2022/06/05 09:12:12;;;;;;;1161.17;751.93;;;21.40;60.10;;;;;;5027326;28;20513;-69
2022/06/05 09:14:47;;;;;;;1159.30;709.73;;;21.50;60.20;;;;;;5028319;28;20037;-69
2022/06/05 09:17:19;;;;;;;1130.17;760.23;;;21.60;59.70;;;;;;5024912;28;20057;-69
2022/06/05 09:19:47;;;;;;;1103.30;732.33;;;21.70;59.70;;;;;;5019879;28;20041;-69
2022/06/05 09:22:27;;;;;;;1065.80;720.67;;;21.70;59.60;;;;;;5026572;28;20048;-69
2022/06/05 09:25:22;;;;;;;1174.20;802.90;;;21.90;59.50;;;;;;5026505;28;20498;-69
2022/06/05 09:27:54;;;;;;;1116.97;739.42;;;22.00;59.30;;;;;;5038786;28;20034;-69
2022/06/05 09:30:39;;;;;;;1170.70;743.87;;;22.20;60.00;;;;;;5023439;28;20055;-69
2022/06/05 09:33:20;;;;;;;1200.10;773.53;;;22.40;58.40;;;;;;5015309;28;20489;-69
2022/06/05 09:36:02;;;;;;;1210.33;809.60;;;22.50;58.20;;;;;;5008879;28;20041;-69
2022/06/05 09:38:37;;;;;;;1238.40;816.80;;;22.70;58.30;;;;;;5019631;28;20038;-69
2022/06/05 09:41:15;;;;;;;1122.10;772.73;;;22.80;57.40;;;;;;5006409;28;20095;-69
2022/06/05 09:43:59;;;;;;;1068.80;771.93;;;22.70;57.50;;;;;;5005976;28;20030;-69
2022/06/05 09:46:52;;;;;;;1047.80;781.37;;;22.60;57.70;;;;;;5020087;28;20041;-69
2022/06/05 09:49:35;;;;;;;1023.50;775.73;;;22.60;57.80;;;;;;5027296;28;20049;-69
2022/06/05 09:52:24;;;;;;;1186.60;793.03;;;22.60;58.30;;;;;;5023123;28;20037;-69
2022/06/05 09:55:01;;;;;;;1113.50;815.63;;;22.70;57.20;;;;;;5027927;28;20069;-69
2022/06/05 10:00:26;;;;;;;1214.67;840.80;;;22.70;57.10;;;;;;5021212;28;20038;-69
2022/06/05 10:02:56;;;;;;;1164.93;818.17;;;22.60;57.00;;;;;;5023156;28;20033;-69
2022/06/05 10:05:31;;;;;;;1183.00;836.00;;;22.50;57.40;;;;;;5022042;28;20341;-69
2022/06/05 10:08:35;;;;;;;1127.30;826.45;;;22.40;57.60;;;;;;5016673;28;20116;-69
2022/06/05 10:11:01;;;;;;;1082.68;808.40;;;22.30;57.60;;;;;;5007296;28;20407;-69
2022/06/05 10:13:51;;;;;;;1121.37;792.87;;;22.30;58.30;;;;;;5018557;28;20509;-69
2022/06/05 10:16:31;;;;;;;1133.03;809.47;;;22.30;58.80;;;;;;5015317;28;20045;-69
2022/06/05 10:19:26;;;;;;;1060.43;798.10;;;22.30;59.10;;;;;;5005691;28;20041;-69
2022/06/05 10:22:03;;;;;;;1055.93;764.87;;;22.30;59.30;;;;;;5023174;28;20037;-69
2022/06/05 10:24:35;;;;;;;1046.57;779.93;;;22.30;59.20;;;;;;5002441;28;20297;-69
2022/06/05 10:27:02;;;;;;;1112.33;781.17;;;22.30;59.40;;;;;;5016793;28;20076;-69
2022/06/05 10:29:39;;;;;;;1108.47;794.50;;;22.30;59.20;;;;;;5008025;28;20041;-69
2022/06/05 10:32:11;;;;;;;1092.73;804.90;;;22.30;58.10;;;;;;5006598;28;20048;-69
2022/06/05 10:34:41;;;;;;;1106.20;804.33;;;22.30;59.10;;;;;;5010324;28;20048;-69
2022/06/05 10:37:24;;;;;;;1042.87;757.43;;;22.30;59.60;;;;;;5021199;28;20521;-69
2022/06/05 10:40:00;;;;;;;1106.77;759.87;;;22.40;59.50;;;;;;5025537;28;20441;-69
2022/06/05 10:42:47;;;;;;;1021.23;759.93;;;22.50;59.00;;;;;;5001540;28;20029;-69
2022/06/05 10:45:17;;;;;;;1062.00;744.73;;;22.60;58.80;;;;;;5036086;28;20041;-69
2022/06/05 10:48:06;;;;;;;1015.80;758.07;;;22.70;59.30;;;;;;5024078;28;20041;-69
2022/06/05 10:50:47;;;;;;;1108.43;800.27;;;22.80;58.80;;;;;;5008648;28;20115;-69
2022/06/05 10:53:25;;;;;;;1114.53;826.13;;;22.90;58.70;;;;;;5016966;28;20049;-69
2022/06/05 10:56:29;;;;;;;1084.97;765.60;;;23.00;58.70;;;;;;5021688;28;20057;-69
2022/06/05 10:59:08;;;;;;;1112.57;812.30;;;23.10;58.00;;;;;;5021055;28;20117;-69
2022/06/05 11:01:48;;;;;;;1157.87;794.37;;;23.00;58.00;;;;;;5003531;28;20037;-69
2022/06/05 11:04:29;;;;;;;1055.27;792.63;;;23.00;57.50;;;;;;5037790;28;20036;-69
2022/06/05 11:07:18;;;;;;;1109.43;791.70;;;23.10;58.00;;;;;;5018237;28;20077;-69
2022/06/05 11:10:02;;;;;;;1044.07;787.40;;;23.10;58.30;;;;;;5024202;28;20088;-69
2022/06/05 11:15:57;;;;;;;1124.63;817.40;;;23.30;58.20;;;;;;5021322;28;20048;-69
2022/06/05 11:18:55;;;;;;;1094.43;777.70;;;23.50;57.00;;;;;;5019274;28;20033;-69
2022/06/05 11:21:23;;;;;;;1103.27;805.13;;;23.70;57.20;;;;;;5000526;28;20041;-69
2022/06/05 11:23:52;;;;;;;1205.00;820.57;;;23.60;57.20;;;;;;5019138;28;20052;-69
2022/06/05 11:26:32;;;;;;;1130.83;851.43;;;23.70;56.80;;;;;;4996779;28;20045;-69
2022/06/05 11:29:12;;;;;;;1163.40;821.70;;;23.80;56.80;;;;;;5022116;28;20859;-69
2022/06/05 11:31:53;;;;;;;1129.73;810.03;;;23.80;56.80;;;;;;5016767;28;20038;-69
2022/06/05 11:34:43;;;;;;;1149.77;838.93;;;23.80;57.30;;;;;;5017805;28;20045;-69
2022/06/05 11:37:17;;;;;;;1117.17;814.40;;;23.90;57.40;;;;;;5025889;28;20053;-69
2022/06/05 11:40:10;;;;;;;1260.90;878.37;;;24.00;57.20;;;;;;5022050;28;20438;-69
2022/06/05 11:42:54;;;;;;;1147.27;821.87;;;24.00;56.70;;;;;;5033397;28;20317;-69
2022/06/05 11:45:45;;;;;;;1137.63;831.33;;;24.00;56.20;;;;;;5017929;28;20050;-69
2022/06/05 11:48:30;;;;;;;1172.13;808.23;;;23.90;56.70;;;;;;5023265;28;20153;-69
2022/06/05 11:50:56;;;;;;;1136.80;844.40;;;23.80;57.30;;;;;;5019617;28;20872;-69
2022/06/05 11:53:50;;;;;;;1149.97;810.47;;;23.80;56.50;;;;;;5018316;28;20128;-69
2022/06/05 11:56:28;;;;;;;1096.40;804.13;;;23.80;56.50;;;;;;5016348;28;20140;-69
2022/06/05 11:59:09;;;;;;;1109.00;812.93;;;23.70;57.20;;;;;;5024017;28;20042;-69
2022/06/05 12:01:43;;;;;;;1045.07;773.40;;;23.70;56.70;;;;;;5005020;28;20125;-69
2022/06/05 12:04:22;;;;;;;1119.85;771.65;;;23.70;57.30;;;;;;5024904;28;20041;-68
2022/06/05 12:06:52;;;;;;;1173.37;836.90;;;23.70;57.50;;;;;;5026159;28;20033;-69
2022/06/05 12:09:27;;;;;;;1128.90;800.53;;;23.70;57.20;;;;;;5023021;28;20045;-69
2022/06/05 12:12:17;;;;;;;1133.20;795.23;;;23.80;57.40;;;;;;5020119;28;20037;-69
2022/06/05 12:14:57;;;;;;;1133.43;846.40;;;23.80;56.20;;;;;;5008787;28;20465;-69
2022/06/05 12:17:34;;;;;;;1073.83;788.07;;;23.70;57.00;;;;;;5023967;28;20511;-69
2022/06/05 12:20:32;;;;;;;1014.83;757.70;;;23.70;57.30;;;;;;5022728;28;20044;-69
2022/06/05 12:23:04;;;;;;;1107.70;800.17;;;23.70;57.60;;;;;;5021967;28;20525;-69
2022/06/05 12:25:44;;;;;;;1106.87;816.47;;;23.80;57.80;;;;;;5016996;28;20402;-69
2022/06/05 12:28:17;;;;;;;1062.13;784.10;;;23.80;57.00;;;;;;5021882;28;20056;-69
2022/06/05 12:31:02;;;;;;;1131.50;780.03;;;23.90;57.40;;;;;;5021804;28;20528;-70
2022/06/05 12:33:39;;;;;;;1100.93;766.42;;;23.90;56.90;;;;;;5008129;28;20048;-69
2022/06/05 12:36:24;;;;;;;1137.70;814.27;;;23.90;56.80;;;;;;5023243;28;20056;-69
2022/06/05 12:38:56;;;;;;;1127.90;861.35;;;23.80;57.50;;;;;;5021191;28;20071;-69
2022/06/05 12:41:47;;;;;;;1121.67;854.43;;;23.80;57.10;;;;;;5018683;28;20073;-69
2022/06/05 12:44:24;;;;;;;1161.13;842.87;;;23.80;56.50;;;;;;5034446;28;20049;-69
2022/06/05 12:46:53;;;;;;;1211.37;835.73;;;23.70;57.20;;;;;;5019341;28;20050;-69
2022/06/05 12:49:28;;;;;;;1158.27;814.80;;;23.80;57.20;;;;;;5023375;28;20716;-69
2022/06/05 12:52:25;;;;;;;1039.40;797.70;;;23.80;56.30;;;;;;5021920;28;20474;-69
2022/06/05 12:55:01;;;;;;;1057.03;781.80;;;23.80;56.60;;;;;;4987841;28;20045;-69
2022/06/05 12:57:39;;;;;;;1130.57;804.83;;;23.80;57.30;;;;;;5011973;28;20533;-69